This is the latest recevied weather packets stored in our database for station/object KB4JAC-13. If no packets are shown the sender has not sent any weather packets the latest 10 day(s).
| Time | Temp. | Humidity | Pressure | Rain* | Wind** | Luminosity | Snow |
|---|---|---|---|---|---|---|---|
| 1788287286 | 35° C | 54% | 993.8 hPa | 0 mm | - | - | - |
| 1788286686 | 33.89° C | 57% | 994 hPa | 0 mm | - | - | - |
| 1788286084 | 33.89° C | 59% | 994.2 hPa | 0 mm | - | - | - |
| 1788285484 | 34.44° C | 55% | 994.2 hPa | 0 mm | - | - | - |
| 1788284883 | 35.56° C | 55% | 994 hPa | 0 mm | - | - | - |
| 1788284282 | 33.89° C | 58% | 994.4 hPa | 0 mm | - | - | - |
| 1788283682 | 34.44° C | 58% | 994.4 hPa | 0 mm | - | - | - |
| 1788283081 | 35° C | 57% | 994.4 hPa | 0 mm | - | - | - |
| 1788282480 | 35.56° C | 57% | 994.7 hPa | 0 mm | - | - | - |
| 1788281879 | 35° C | 56% | 994.8 hPa | 0 mm | - | - | - |
| 1788281278 | 35° C | 57% | 994.9 hPa | 0 mm | - | - | - |
| 1788280677 | 34.44° C | 60% | 995 hPa | 0 mm | - | - | - |
| 1788280076 | 34.44° C | 60% | 995.1 hPa | 0 mm | - | - | - |
| 1788279476 | 33.33° C | 60% | 995.1 hPa | 0 mm | - | - | - |
| 1788278874 | 32.78° C | 64% | 995.2 hPa | 0 mm | - | - | - |
| 1788278274 | 33.33° C | 60% | 995.5 hPa | 0 mm | - | - | - |
| 1788277673 | 33.33° C | 61% | 995.6 hPa | 0 mm | - | - | - |
| 1788277072 | 33.33° C | 64% | 995.6 hPa | 0 mm | - | - | - |
| 1788276472 | 32.22° C | 68% | 995.6 hPa | 0 mm | - | - | - |
| 1788275871 | 31.67° C | 67% | 995.7 hPa | 0 mm | - | - | - |
| 1788275271 | 31.67° C | 70% | 995.9 hPa | 0 mm | - | - | - |
| 1788274670 | 31.67° C | 72% | 995.7 hPa | 0 mm | - | - | - |
| 1788274070 | 31.11° C | 73% | 995.8 hPa | 0 mm | - | - | - |
| 1788273469 | 30° C | 75% | 995.7 hPa | 0 mm | - | - | - |
| 1788272868 | 29.44° C | 76% | 995.6 hPa | 0 mm | - | - | - |
* Rain since midnight (hover to see other rain measurements)
** Current wind speed in m/s (hover to see current wind gust speed)